createdAt,value
2018-06-11T00:01:23.917Z,75.90
2018-06-11T00:03:52.688Z,75.30
2018-06-11T00:06:21.044Z,75.50
2018-06-11T00:08:49.415Z,75.20
2018-06-11T00:11:17.532Z,75.00
2018-06-11T00:13:45.700Z,74.90
2018-06-11T00:16:13.810Z,74.80
2018-06-11T00:18:42.152Z,75.00
2018-06-11T00:21:10.495Z,75.20
2018-06-11T00:23:38.714Z,75.30
2018-06-11T00:26:06.844Z,75.30
2018-06-11T00:28:35.061Z,75.30
2018-06-11T00:31:03.313Z,75.50
2018-06-11T00:33:31.497Z,75.40
2018-06-11T00:36:00.369Z,75.70
2018-06-11T00:38:28.546Z,75.70
2018-06-11T00:40:57.160Z,75.90
2018-06-11T00:43:25.406Z,75.80
2018-06-11T00:45:53.855Z,75.90
2018-06-11T00:48:22.122Z,76.00
2018-06-11T00:50:50.407Z,76.40
2018-06-11T00:53:18.559Z,76.80
2018-06-11T00:55:58.334Z,76.80
2018-06-11T00:58:26.553Z,77.30
2018-06-11T01:00:54.671Z,77.50
2018-06-11T01:03:22.801Z,77.30
2018-06-11T01:05:50.897Z,77.40
2018-06-11T01:08:19.091Z,77.60
2018-06-11T01:13:15.216Z,77.80
2018-06-11T01:15:43.408Z,77.50
2018-06-11T01:18:11.610Z,77.60
2018-06-11T01:20:39.982Z,77.50
2018-06-11T01:23:08.150Z,77.20
2018-06-11T01:25:36.784Z,77.80
2018-06-11T01:28:04.966Z,77.30
2018-06-11T01:30:33.083Z,77.30
2018-06-11T01:33:01.252Z,77.70
2018-06-11T01:35:29.361Z,77.00
2018-06-11T01:37:57.663Z,77.70
2018-06-11T01:40:25.864Z,77.00
2018-06-11T01:42:54.187Z,76.80
2018-06-11T01:45:22.388Z,77.20
2018-06-11T01:47:50.577Z,77.50
2018-06-11T01:50:18.746Z,77.50
2018-06-11T01:52:46.994Z,77.60
2018-06-11T01:55:15.236Z,77.80
2018-06-11T01:57:43.391Z,77.80
2018-06-11T02:00:11.978Z,77.80
2018-06-11T02:02:40.136Z,77.70
2018-06-11T02:05:08.268Z,77.80
2018-06-11T02:07:36.404Z,77.80
2018-06-11T02:10:05.143Z,78.10
2018-06-11T02:12:33.311Z,78.40
2018-06-11T02:15:01.489Z,78.30
2018-06-11T02:17:29.798Z,78.40
2018-06-11T02:19:58.009Z,78.50
2018-06-11T02:22:26.140Z,78.40
2018-06-11T02:24:54.599Z,78.60
2018-06-11T02:27:22.762Z,79.30
2018-06-11T02:29:50.963Z,78.70
2018-06-11T02:32:19.262Z,77.70
2018-06-11T02:34:47.389Z,78.40
2018-06-11T02:37:15.821Z,77.90
2018-06-11T02:39:44.003Z,77.30
2018-06-11T02:42:12.284Z,77.10
2018-06-11T02:44:40.555Z,76.90
2018-06-11T02:47:08.738Z,77.10
2018-06-11T02:49:36.895Z,77.40
2018-06-11T02:52:05.101Z,77.10
2018-06-11T02:54:33.311Z,77.00
2018-06-11T02:57:01.581Z,77.00
2018-06-11T02:59:29.747Z,76.50
2018-06-11T03:01:57.973Z,77.00
2018-06-11T03:04:26.339Z,76.60
2018-06-11T03:06:54.621Z,76.40
2018-06-11T03:09:22.807Z,76.30
2018-06-11T03:11:50.989Z,75.70
2018-06-11T03:14:19.318Z,75.30
2018-06-11T03:16:47.471Z,74.70
2018-06-11T03:19:15.747Z,75.20
2018-06-11T03:21:43.987Z,75.60
2018-06-11T03:24:12.246Z,76.00
2018-06-11T03:26:40.532Z,76.10
2018-06-11T03:29:08.711Z,75.90
2018-06-11T03:31:37.090Z,76.10
2018-06-11T03:34:05.278Z,76.20
2018-06-11T03:36:33.993Z,76.40
2018-06-11T03:39:02.304Z,76.60
2018-06-11T03:41:30.489Z,75.90
2018-06-11T03:43:58.680Z,75.60
2018-06-11T03:46:26.856Z,76.00
2018-06-11T03:48:55.020Z,76.00
2018-06-11T03:51:23.248Z,76.60
2018-06-11T03:53:51.403Z,76.10
2018-06-11T03:56:19.738Z,76.30
2018-06-11T03:58:47.901Z,76.70
2018-06-11T04:01:16.208Z,76.50
2018-06-11T04:03:44.408Z,76.90
2018-06-11T04:06:12.760Z,76.90
2018-06-11T04:08:40.950Z,77.10
2018-06-11T04:11:09.556Z,77.10
2018-06-11T04:13:37.718Z,76.10
2018-06-11T04:16:05.853Z,76.40
2018-06-11T04:18:34.010Z,76.30
2018-06-11T04:21:02.204Z,75.50
2018-06-11T04:26:05.171Z,74.80
2018-06-11T04:28:34.006Z,75.10
2018-06-11T04:31:02.216Z,74.90
2018-06-11T04:33:30.463Z,75.30
2018-06-11T04:35:58.663Z,74.60
2018-06-11T04:38:26.891Z,74.30
2018-06-11T04:40:55.088Z,74.30
2018-06-11T04:43:23.322Z,74.20
2018-06-11T04:45:51.525Z,74.00
2018-06-11T04:48:19.754Z,73.90
2018-06-11T04:50:47.876Z,73.50
2018-06-11T04:53:16.199Z,73.40
2018-06-11T04:55:44.364Z,73.50
2018-06-11T04:58:12.584Z,73.50
2018-06-11T05:03:08.888Z,73.40
2018-06-11T05:05:37.239Z,73.40
2018-06-11T05:10:33.471Z,73.20
2018-06-11T05:13:01.950Z,73.00
2018-06-11T05:15:30.141Z,72.80
2018-06-11T05:17:59.013Z,70.70
2018-06-11T05:20:27.147Z,69.70
2018-06-11T05:22:57.443Z,68.90
2018-06-11T05:25:25.867Z,68.90
2018-06-11T05:27:56.967Z,69.20
2018-06-11T05:30:26.581Z,69.90
2018-06-11T05:35:23.323Z,71.20
2018-06-11T05:37:51.468Z,71.70
2018-06-11T05:40:19.771Z,71.90
2018-06-11T05:42:48.087Z,72.30
2018-06-11T05:45:16.225Z,72.60
2018-06-11T05:47:44.345Z,72.70
2018-06-11T05:50:12.675Z,72.80
2018-06-11T05:52:40.971Z,72.90
2018-06-11T05:55:09.160Z,73.00
2018-06-11T05:57:37.335Z,72.70
2018-06-11T06:00:05.676Z,72.90
2018-06-11T06:02:34.128Z,73.20
2018-06-11T06:07:30.500Z,73.60
2018-06-11T06:09:58.768Z,73.70
2018-06-11T06:12:27.576Z,73.90
2018-06-11T06:14:55.726Z,73.60
2018-06-11T06:17:24.440Z,73.50
2018-06-11T06:19:52.596Z,73.70
2018-06-11T06:22:20.969Z,73.60
2018-06-11T06:24:49.164Z,73.40
2018-06-11T06:27:17.537Z,73.10
2018-06-11T06:29:45.723Z,72.50
2018-06-11T06:32:14.132Z,72.30
2018-06-11T06:34:42.346Z,72.10
2018-06-11T06:37:10.490Z,72.60
2018-06-11T06:39:38.747Z,72.40
2018-06-11T06:42:06.855Z,72.20
2018-06-11T06:44:35.154Z,72.60
2018-06-11T06:47:03.954Z,72.70
2018-06-11T06:49:32.082Z,72.10
2018-06-11T06:52:00.944Z,72.30
2018-06-11T06:54:29.541Z,72.20
2018-06-11T06:56:58.193Z,72.30
2018-06-11T06:59:26.381Z,71.90
2018-06-11T07:01:54.671Z,71.90
2018-06-11T07:04:22.848Z,71.40
2018-06-11T07:06:51.017Z,71.20
2018-06-11T07:09:19.227Z,71.20
2018-06-11T07:11:47.616Z,70.60
2018-06-11T07:14:15.811Z,70.40
2018-06-11T07:16:44.889Z,70.60
2018-06-11T07:19:13.058Z,70.50
2018-06-11T07:21:41.264Z,69.70
2018-06-11T07:24:09.403Z,69.50
2018-06-11T07:26:37.545Z,69.10
2018-06-11T07:29:05.708Z,68.60
2018-06-11T07:31:33.830Z,68.20
2018-06-11T07:34:02.097Z,67.10
2018-06-11T07:36:30.645Z,67.60
2018-06-11T07:38:58.803Z,67.80
2018-06-11T07:41:27.283Z,67.30
2018-06-11T07:46:23.495Z,67.30
2018-06-11T07:48:51.664Z,67.00
2018-06-11T07:51:19.787Z,67.40
2018-06-11T07:53:48.156Z,67.50
2018-06-11T07:56:16.325Z,66.50
2018-06-11T07:58:44.428Z,67.20
2018-06-11T08:01:12.645Z,67.50
2018-06-11T08:03:40.964Z,67.80
2018-06-11T08:06:09.224Z,66.90
2018-06-11T08:08:37.410Z,66.60
2018-06-11T08:11:05.616Z,66.00
2018-06-11T08:13:33.954Z,66.10
2018-06-11T08:16:02.171Z,66.50
2018-06-11T08:18:30.639Z,67.50
2018-06-11T08:20:59.890Z,67.30
2018-06-11T08:23:28.185Z,66.90
2018-06-11T08:25:56.526Z,67.10
2018-06-11T08:28:24.689Z,66.60
2018-06-11T08:30:52.869Z,66.30
2018-06-11T08:33:21.010Z,65.60
2018-06-11T08:35:49.258Z,66.40
2018-06-11T08:40:45.576Z,65.90
2018-06-11T08:43:13.949Z,65.70
2018-06-11T08:45:42.238Z,65.60
2018-06-11T08:48:10.421Z,65.10
2018-06-11T08:50:38.599Z,65.50
2018-06-11T08:53:06.976Z,65.10
2018-06-11T08:55:35.175Z,63.70
2018-06-11T08:58:03.493Z,63.00
2018-06-11T09:00:31.716Z,62.70
2018-06-11T09:05:30.905Z,63.20
2018-06-11T09:10:29.311Z,63.20
2018-06-11T09:12:57.432Z,63.00
2018-06-11T09:15:25.776Z,62.20
2018-06-11T09:17:54.005Z,61.30
2018-06-11T09:20:22.289Z,62.00
2018-06-11T09:22:50.457Z,61.70
2018-06-11T09:25:19.084Z,60.70
2018-06-11T09:27:47.229Z,60.90
2018-06-11T09:30:15.467Z,60.30
2018-06-11T09:32:43.695Z,60.80
2018-06-11T09:37:39.889Z,60.10
2018-06-11T09:40:08.588Z,59.20
2018-06-11T09:42:36.953Z,58.00
2018-06-11T09:45:05.273Z,57.30
2018-06-11T09:47:33.522Z,57.10
2018-06-11T09:50:01.710Z,58.10
2018-06-11T09:52:29.943Z,57.90
2018-06-11T09:54:58.055Z,56.90
2018-06-11T09:57:26.233Z,56.20
2018-06-11T09:59:54.383Z,56.50
2018-06-11T10:02:22.620Z,54.80
2018-06-11T10:04:50.865Z,54.90
2018-06-11T10:07:19.027Z,55.20
2018-06-11T10:09:47.327Z,54.30
2018-06-11T10:12:15.484Z,54.50
2018-06-11T10:14:43.850Z,52.70
2018-06-11T10:17:12.058Z,53.40
2018-06-11T10:19:40.378Z,53.10
2018-06-11T10:22:08.709Z,52.60
2018-06-11T10:24:36.973Z,52.00
2018-06-11T10:27:05.168Z,51.90
2018-06-11T10:29:33.439Z,51.70
2018-06-11T10:32:01.605Z,50.70
2018-06-11T10:34:29.750Z,51.40
2018-06-11T10:36:57.953Z,48.50
2018-06-11T10:39:26.113Z,48.70
2018-06-11T10:41:54.203Z,48.50
2018-06-11T10:44:22.421Z,46.30
2018-06-11T10:46:50.604Z,47.30
2018-06-11T10:49:18.770Z,46.90
2018-06-11T10:51:47.020Z,46.70
2018-06-11T10:54:15.175Z,46.00
2018-06-11T10:56:43.424Z,46.10
2018-06-11T10:59:11.621Z,45.90
2018-06-11T11:01:39.766Z,45.10
2018-06-11T11:04:07.889Z,43.50
2018-06-11T11:06:36.058Z,43.70
2018-06-11T11:09:05.869Z,42.70
2018-06-11T11:11:34.504Z,43.10
2018-06-11T11:14:02.713Z,42.50
2018-06-11T11:16:31.068Z,41.40
2018-06-11T11:18:59.382Z,40.10
2018-06-11T11:21:27.557Z,39.60
2018-06-11T11:23:55.701Z,39.70
2018-06-11T11:26:24.860Z,37.40
2018-06-11T11:28:53.013Z,37.60
2018-06-11T11:31:21.201Z,38.40
2018-06-11T11:33:49.395Z,37.20
2018-06-11T11:36:17.461Z,37.20
2018-06-11T11:38:45.742Z,36.50
2018-06-11T11:41:14.181Z,36.60
2018-06-11T11:43:42.596Z,36.40
2018-06-11T11:46:10.741Z,35.90
2018-06-11T11:48:39.252Z,36.20
2018-06-11T11:51:07.448Z,36.40
2018-06-11T11:53:35.828Z,36.00
2018-06-11T11:56:04.048Z,34.80
2018-06-11T11:58:32.217Z,34.80
2018-06-11T12:01:00.512Z,35.90
2018-06-11T12:03:28.811Z,36.60
2018-06-11T12:05:56.970Z,35.80
2018-06-11T12:08:25.135Z,36.60
2018-06-11T12:10:53.343Z,35.90
2018-06-11T12:13:21.523Z,35.70
2018-06-11T12:15:49.735Z,35.70
2018-06-11T12:18:17.878Z,36.00
2018-06-11T12:23:14.184Z,36.10
2018-06-11T12:25:42.518Z,35.80
2018-06-11T12:28:10.666Z,35.00
2018-06-11T12:30:38.927Z,35.80
2018-06-11T12:33:07.053Z,35.10
2018-06-11T12:35:35.417Z,34.60
2018-06-11T12:38:03.577Z,34.80
2018-06-11T12:40:31.924Z,34.70
2018-06-11T12:43:00.183Z,34.90
2018-06-11T12:45:28.401Z,35.10
2018-06-11T12:47:56.584Z,35.00
2018-06-11T12:50:24.820Z,34.80
2018-06-11T12:52:53.257Z,34.80
2018-06-11T12:55:21.350Z,34.30
2018-06-11T12:57:49.614Z,34.00
2018-06-11T13:00:17.872Z,33.80
2018-06-11T13:02:46.095Z,33.60
2018-06-11T13:05:14.521Z,33.60
2018-06-11T13:07:43.313Z,33.70
2018-06-11T13:10:11.514Z,34.30
2018-06-11T13:12:39.944Z,34.20
2018-06-11T13:15:08.124Z,33.30
2018-06-11T13:17:36.239Z,33.10
2018-06-11T13:20:04.474Z,32.30
2018-06-11T13:22:32.806Z,32.60
2018-06-11T13:25:01.007Z,32.90
2018-06-11T13:27:29.186Z,30.20
2018-06-11T13:29:57.347Z,30.30
2018-06-11T13:32:25.665Z,30.00
2018-06-11T13:34:54.523Z,30.00
2018-06-11T13:37:23.300Z,29.90
2018-06-11T13:39:51.462Z,30.00
2018-06-11T13:42:19.648Z,29.40
2018-06-11T13:44:47.799Z,29.60
2018-06-11T13:47:16.381Z,29.60
2018-06-11T13:49:44.557Z,29.50
2018-06-11T13:52:12.713Z,29.50
2018-06-11T13:54:40.852Z,29.90
2018-06-11T13:57:09.087Z,29.10
2018-06-11T13:59:37.435Z,29.00
2018-06-11T14:02:05.643Z,28.30
2018-06-11T14:04:33.825Z,28.50
2018-06-11T14:07:02.007Z,29.30
2018-06-11T14:09:30.209Z,29.70
2018-06-11T14:11:58.347Z,30.00
2018-06-11T14:14:26.535Z,30.00
2018-06-11T14:16:54.622Z,30.10
2018-06-11T14:19:22.803Z,29.40
2018-06-11T14:21:51.040Z,29.30
2018-06-11T14:24:19.211Z,29.60
2018-06-11T14:26:47.309Z,29.70
2018-06-11T14:29:15.483Z,29.60
2018-06-11T14:31:43.701Z,29.50
2018-06-11T14:34:11.914Z,29.20
2018-06-11T14:36:40.066Z,29.60
2018-06-11T14:39:09.157Z,30.30
2018-06-11T14:41:37.310Z,29.20
2018-06-11T14:44:05.531Z,29.50
2018-06-11T14:46:33.846Z,29.80
2018-06-11T14:49:02.209Z,29.70
2018-06-11T14:51:30.497Z,30.30
2018-06-11T14:53:58.773Z,29.90
2018-06-11T14:56:27.021Z,30.00
2018-06-11T14:58:55.314Z,30.20
2018-06-11T15:01:23.492Z,30.60
2018-06-11T15:03:51.732Z,30.80
2018-06-11T15:06:20.000Z,30.90
2018-06-11T15:08:48.266Z,31.30
2018-06-11T15:11:16.565Z,31.20
2018-06-11T15:13:44.774Z,30.80
2018-06-11T15:16:13.004Z,30.80
2018-06-11T15:18:41.247Z,30.60
2018-06-11T15:21:09.731Z,30.60
2018-06-11T15:23:37.900Z,30.70
2018-06-11T15:26:06.184Z,30.90
2018-06-11T15:28:34.396Z,30.70
2018-06-11T15:31:02.497Z,30.60
2018-06-11T15:33:30.671Z,31.20
2018-06-11T15:35:58.804Z,31.30
2018-06-11T15:38:26.996Z,31.80
2018-06-11T15:40:55.131Z,31.80
2018-06-11T15:43:23.311Z,32.10
2018-06-11T15:45:51.480Z,32.10
2018-06-11T15:48:20.193Z,32.60
2018-06-11T15:50:48.380Z,31.40
2018-06-11T15:53:16.561Z,30.80
2018-06-11T15:55:44.824Z,31.00
2018-06-11T15:58:13.036Z,31.00
2018-06-11T16:00:41.478Z,31.10
2018-06-11T16:03:10.080Z,30.40
2018-06-11T16:05:38.273Z,30.60
2018-06-11T16:08:06.622Z,30.50
2018-06-11T16:10:34.879Z,30.70
2018-06-11T16:13:03.356Z,30.80
2018-06-11T16:15:31.649Z,31.10
2018-06-11T16:17:59.878Z,31.50
2018-06-11T16:20:28.012Z,31.80
2018-06-11T16:22:56.170Z,31.70
2018-06-11T16:25:24.370Z,31.10
2018-06-11T16:30:20.699Z,31.30
2018-06-11T16:32:49.220Z,31.60
2018-06-11T16:35:17.376Z,31.90
2018-06-11T16:37:45.606Z,32.00
2018-06-11T16:42:41.736Z,32.20
2018-06-11T16:45:09.875Z,32.40
2018-06-11T16:47:38.152Z,32.50
2018-06-11T16:50:06.478Z,32.20
2018-06-11T16:52:34.699Z,32.60
2018-06-11T16:55:03.019Z,33.10
2018-06-11T16:57:31.295Z,33.20
2018-06-11T17:02:27.664Z,33.30
2018-06-11T17:04:55.840Z,33.30
2018-06-11T17:07:24.166Z,33.90
2018-06-11T17:09:52.349Z,33.90
2018-06-11T17:12:20.534Z,34.10
2018-06-11T17:14:48.733Z,34.90
2018-06-11T17:17:16.840Z,34.30
2018-06-11T17:19:45.099Z,34.10
2018-06-11T17:22:13.541Z,34.00
2018-06-11T17:24:41.766Z,34.10
2018-06-11T17:29:38.017Z,34.00
2018-06-11T17:32:06.230Z,34.30
2018-06-11T17:34:34.438Z,35.10
2018-06-11T17:37:02.991Z,34.50
2018-06-11T17:41:59.527Z,34.50
2018-06-11T17:44:28.010Z,34.90
2018-06-11T17:46:56.271Z,35.50
2018-06-11T17:49:24.471Z,36.20
2018-06-11T17:51:52.699Z,36.50
2018-06-11T17:54:20.996Z,36.80
2018-06-11T17:56:49.608Z,36.80
2018-06-11T17:59:17.728Z,37.00
2018-06-11T18:01:45.962Z,37.20
2018-06-11T18:04:15.000Z,37.20
2018-06-11T18:09:11.733Z,37.30
2018-06-11T18:11:40.135Z,37.30
2018-06-11T18:14:09.051Z,37.60
2018-06-11T18:16:37.515Z,50.10
2018-06-11T18:19:05.942Z,46.90
2018-06-11T18:21:34.337Z,43.10
2018-06-11T18:24:02.698Z,41.90
2018-06-11T18:26:32.888Z,39.30
2018-06-11T18:29:01.353Z,39.20
2018-06-11T18:33:58.074Z,39.50
2018-06-11T18:36:26.497Z,39.00
2018-06-11T18:38:54.752Z,38.10
2018-06-11T18:41:23.336Z,38.40
2018-06-11T18:43:51.938Z,39.50
2018-06-11T18:46:20.256Z,38.70
2018-06-11T18:48:48.605Z,38.30
2018-06-11T18:51:16.981Z,38.40
2018-06-11T18:53:45.410Z,38.00
2018-06-11T18:56:13.863Z,38.20
2018-06-11T18:58:42.392Z,37.10
2018-06-11T19:01:10.723Z,36.30
2018-06-11T19:03:38.979Z,36.10
2018-06-11T19:06:07.442Z,38.60
2018-06-11T19:08:36.870Z,36.70
2018-06-11T19:11:05.779Z,39.00
2018-06-11T19:13:34.330Z,37.80
2018-06-11T19:16:03.815Z,37.20
2018-06-11T19:18:32.715Z,37.00
2018-06-11T19:21:01.385Z,37.00
2018-06-11T19:23:30.590Z,37.20
2018-06-11T19:25:59.047Z,37.70
2018-06-11T19:28:27.641Z,38.40
2018-06-11T19:30:55.852Z,37.70
2018-06-11T19:33:24.220Z,36.90
2018-06-11T19:35:52.865Z,36.80
2018-06-11T19:38:21.281Z,37.40
2018-06-11T19:43:17.559Z,38.70
2018-06-11T19:45:45.895Z,38.00
2018-06-11T19:48:14.171Z,38.90
2018-06-11T19:50:42.499Z,38.80
2018-06-11T19:53:10.741Z,38.60
2018-06-11T19:55:39.093Z,37.80
2018-06-11T19:58:07.981Z,37.50
2018-06-11T20:00:36.471Z,38.60
2018-06-11T20:05:33.748Z,38.70
2018-06-11T20:08:02.185Z,38.30
2018-06-11T20:10:30.497Z,39.10
2018-06-11T20:12:58.960Z,39.10
2018-06-11T20:15:27.161Z,39.20
2018-06-11T20:17:55.414Z,39.30
2018-06-11T20:20:23.685Z,39.40
2018-06-11T20:22:51.951Z,39.80
2018-06-11T20:25:20.203Z,39.80
2018-06-11T20:27:48.822Z,40.70
2018-06-11T20:30:17.117Z,40.70
2018-06-11T20:32:45.541Z,40.80
2018-06-11T20:35:14.162Z,41.20
2018-06-11T20:37:42.780Z,40.60
2018-06-11T20:40:11.224Z,40.20
2018-06-11T20:42:39.670Z,40.30
2018-06-11T20:45:08.167Z,40.50
2018-06-11T20:47:36.622Z,40.10
2018-06-11T20:50:05.036Z,40.20
2018-06-11T20:52:33.360Z,40.20
2018-06-11T20:55:01.864Z,40.20
2018-06-11T20:57:30.089Z,40.00
2018-06-11T20:59:58.378Z,40.10
2018-06-11T21:02:26.842Z,39.70
2018-06-11T21:04:55.099Z,40.40
2018-06-11T21:07:23.293Z,40.20
2018-06-11T21:09:51.577Z,40.40
2018-06-11T21:12:19.873Z,40.30
2018-06-11T21:14:48.251Z,40.20
2018-06-11T21:17:16.639Z,40.70
2018-06-11T21:19:44.956Z,40.10
2018-06-11T21:22:13.125Z,40.20
2018-06-11T21:24:41.425Z,40.20
2018-06-11T21:27:09.680Z,40.90
2018-06-11T21:29:38.006Z,40.70
2018-06-11T21:32:06.254Z,41.10
2018-06-11T21:34:34.505Z,41.50
2018-06-11T21:37:02.733Z,40.50
2018-06-11T21:39:31.012Z,40.70
2018-06-11T21:41:59.189Z,41.00
2018-06-11T21:44:27.388Z,41.30
2018-06-11T21:46:55.601Z,41.70
2018-06-11T21:49:23.808Z,41.90
2018-06-11T21:51:52.053Z,42.30
2018-06-11T21:54:20.335Z,42.50
2018-06-11T21:56:48.784Z,42.70
2018-06-11T21:59:17.142Z,42.80
2018-06-11T22:01:45.585Z,43.30
2018-06-11T22:04:13.821Z,43.60
2018-06-11T22:06:42.312Z,43.90
2018-06-11T22:09:10.737Z,44.10
2018-06-11T22:11:39.223Z,44.40
2018-06-11T22:14:07.938Z,44.60
2018-06-11T22:16:36.516Z,45.00
2018-06-11T22:19:04.828Z,45.20
2018-06-11T22:21:33.258Z,45.40
2018-06-11T22:24:02.090Z,45.50
2018-06-11T22:26:31.417Z,45.80
2018-06-11T22:29:06.331Z,45.80
2018-06-11T22:31:35.426Z,46.00
2018-06-11T22:34:04.495Z,46.00
2018-06-11T22:36:33.472Z,46.00
2018-06-11T22:39:02.327Z,46.10
2018-06-11T22:41:31.192Z,46.20
2018-06-11T22:43:59.527Z,46.40
2018-06-11T22:46:27.656Z,46.50
2018-06-11T22:48:55.894Z,46.70
2018-06-11T22:51:24.240Z,47.30
2018-06-11T22:53:52.859Z,47.10
2018-06-11T22:56:21.597Z,47.20
2018-06-11T22:58:50.066Z,47.50
2018-06-11T23:01:18.571Z,47.40
2018-06-11T23:03:47.096Z,47.60
2018-06-11T23:06:15.650Z,47.80
2018-06-11T23:08:44.289Z,47.90
2018-06-11T23:11:12.812Z,48.00
2018-06-11T23:13:41.627Z,48.00
2018-06-11T23:16:10.063Z,48.20
2018-06-11T23:18:38.602Z,48.20
2018-06-11T23:21:07.056Z,48.40
2018-06-11T23:23:35.871Z,48.50
2018-06-11T23:26:04.282Z,48.50
2018-06-11T23:28:33.023Z,48.70
2018-06-11T23:31:01.789Z,49.00
2018-06-11T23:33:30.715Z,48.90
2018-06-11T23:35:59.307Z,49.50
2018-06-11T23:38:28.189Z,49.60
2018-06-11T23:40:56.651Z,49.00
2018-06-11T23:43:25.256Z,49.60
2018-06-11T23:45:53.723Z,49.20
2018-06-11T23:48:22.225Z,49.30
2018-06-11T23:50:51.070Z,49.30
2018-06-11T23:53:19.932Z,49.50
2018-06-11T23:55:48.687Z,49.60
2018-06-11T23:58:17.373Z,49.70
